createdAt,value
2022-11-15T00:02:27.097Z,100668.53
2022-11-15T00:05:15.477Z,100661.28
2022-11-15T00:08:02.385Z,100671.75
2022-11-15T00:10:56.709Z,100665.31
2022-11-15T00:13:43.771Z,100666.47
2022-11-15T00:16:30.729Z,100655.34
2022-11-15T00:19:18.031Z,100651.38
2022-11-15T00:22:06.375Z,100650.34
2022-11-15T00:24:53.226Z,100648.94
2022-11-15T00:27:40.353Z,100644.38
2022-11-15T00:30:27.420Z,100639.81
2022-11-15T00:33:14.407Z,100630.88
2022-11-15T00:36:05.430Z,100627.47
2022-11-15T00:38:53.783Z,100625.09
2022-11-15T00:41:40.827Z,100630.00
2022-11-15T00:44:27.552Z,100616.72
2022-11-15T00:47:14.106Z,100619.50
2022-11-15T00:50:01.183Z,100601.63
2022-11-15T00:52:48.351Z,100601.03
2022-11-15T00:55:36.834Z,100596.50
2022-11-15T00:58:24.040Z,100597.31
2022-11-15T01:01:12.130Z,100591.00
2022-11-15T01:04:01.485Z,100588.03
2022-11-15T01:06:49.104Z,100585.78
2022-11-15T01:09:36.289Z,100585.72
2022-11-15T01:12:24.889Z,100579.00
2022-11-15T01:15:12.204Z,100568.97
2022-11-15T01:17:59.303Z,100572.56
2022-11-15T01:20:46.467Z,100553.28
2022-11-15T01:23:33.839Z,100551.81
2022-11-15T01:26:20.987Z,100561.28
2022-11-15T01:29:09.285Z,100572.22
2022-11-15T01:31:56.254Z,100551.72
2022-11-15T01:34:43.057Z,100561.50
2022-11-15T01:37:29.992Z,100553.81
2022-11-15T01:40:17.115Z,100554.09
2022-11-15T01:43:22.778Z,100555.66
2022-11-15T01:46:24.221Z,100561.53
2022-11-15T01:49:14.899Z,100551.91
2022-11-15T01:52:03.359Z,100544.63
2022-11-15T01:54:53.194Z,100539.91
2022-11-15T01:57:40.367Z,100533.44
2022-11-15T02:00:27.357Z,100535.06
2022-11-15T02:03:15.797Z,100521.56
2022-11-15T02:06:04.398Z,100509.66
2022-11-15T02:08:51.975Z,100516.31
2022-11-15T02:11:39.095Z,100512.69
2022-11-15T02:14:27.784Z,100516.66
2022-11-15T02:17:26.318Z,100515.78
2022-11-15T02:20:49.419Z,100507.97
2022-11-15T02:24:07.869Z,100519.22
2022-11-15T02:27:10.306Z,100506.69
2022-11-15T02:30:30.005Z,100502.03
2022-11-15T02:33:29.457Z,100499.72
2022-11-15T02:36:20.356Z,100493.75
2022-11-15T02:39:11.616Z,100489.31
2022-11-15T02:42:02.768Z,100494.94
2022-11-15T02:44:49.807Z,100492.13
2022-11-15T02:47:43.109Z,100482.69
2022-11-15T02:50:32.624Z,100492.84
2022-11-15T02:53:19.768Z,100484.94
2022-11-15T02:56:06.728Z,100476.56
2022-11-15T02:59:15.341Z,100471.38
2022-11-15T03:02:12.011Z,100456.09
2022-11-15T03:05:02.234Z,100463.59
2022-11-15T03:07:54.804Z,100448.31
2022-11-15T03:10:48.766Z,100460.59
2022-11-15T03:13:39.327Z,100453.91
2022-11-15T03:16:29.050Z,100450.41
2022-11-15T03:19:20.945Z,100445.16
2022-11-15T03:22:11.958Z,100444.28
2022-11-15T03:25:03.417Z,100445.75
2022-11-15T03:27:53.715Z,100438.03
2022-11-15T03:30:42.117Z,100430.25
2022-11-15T03:33:30.768Z,100432.47
2022-11-15T03:36:18.546Z,100423.28
2022-11-15T03:39:08.689Z,100415.38
2022-11-15T03:42:04.721Z,100418.31
2022-11-15T03:44:56.683Z,100415.34
2022-11-15T03:47:46.369Z,100407.63
2022-11-15T03:50:33.870Z,100406.25
2022-11-15T03:53:21.014Z,100418.16
2022-11-15T03:56:07.877Z,100408.31
2022-11-15T03:58:56.483Z,100406.16
2022-11-15T04:01:44.001Z,100402.81
2022-11-15T04:04:31.062Z,100391.25
2022-11-15T04:07:18.291Z,100388.84
2022-11-15T04:10:06.682Z,100381.56
2022-11-15T04:12:54.038Z,100380.53
2022-11-15T04:15:42.660Z,100372.38
2022-11-15T04:18:29.914Z,100377.44
2022-11-15T04:21:34.888Z,100384.66
2022-11-15T04:24:21.831Z,100376.28
2022-11-15T04:27:09.034Z,100379.75
2022-11-15T04:29:56.295Z,100369.38
2022-11-15T04:32:44.999Z,100366.63
2022-11-15T04:35:32.591Z,100364.66
2022-11-15T04:38:19.299Z,100372.78
2022-11-15T04:41:06.215Z,100376.09
2022-11-15T04:43:53.151Z,100373.75
2022-11-15T04:46:40.214Z,100366.31
2022-11-15T04:49:28.496Z,100369.13
2022-11-15T04:52:15.255Z,100373.03
2022-11-15T04:55:07.760Z,100364.34
2022-11-15T04:58:01.675Z,100361.56
2022-11-15T05:00:49.001Z,100360.53
2022-11-15T05:03:53.848Z,100362.63
2022-11-15T05:06:42.600Z,100365.19
2022-11-15T05:09:29.467Z,100365.03
2022-11-15T05:12:16.960Z,100364.06
2022-11-15T05:15:04.428Z,100352.22
2022-11-15T05:17:51.262Z,100355.63
2022-11-15T05:20:38.194Z,100363.72
2022-11-15T05:23:26.315Z,100354.16
2022-11-15T05:26:13.282Z,100355.84
2022-11-15T05:29:01.453Z,100357.72
2022-11-15T05:31:48.282Z,100353.22
2022-11-15T05:34:35.186Z,100353.22
2022-11-15T05:37:22.149Z,100354.19
2022-11-15T05:40:11.465Z,100352.06
2022-11-15T05:42:58.537Z,100350.13
2022-11-15T05:45:45.519Z,100351.56
2022-11-15T05:48:32.707Z,100347.38
2022-11-15T05:51:20.768Z,100341.75
2022-11-15T05:54:07.926Z,100335.59
2022-11-15T05:56:57.025Z,100335.84
2022-11-15T05:59:44.529Z,100336.34
2022-11-15T06:02:31.566Z,100340.97
2022-11-15T06:05:18.348Z,100347.59
2022-11-15T06:08:05.669Z,100355.41
2022-11-15T06:10:52.847Z,100346.06
2022-11-15T06:13:41.500Z,100353.47
2022-11-15T06:16:28.490Z,100355.09
2022-11-15T06:19:15.894Z,100354.47
2022-11-15T06:22:03.079Z,100339.38
2022-11-15T06:24:49.952Z,100352.97
2022-11-15T06:27:36.858Z,100352.03
2022-11-15T06:30:26.605Z,100341.13
2022-11-15T06:33:13.588Z,100349.66
2022-11-15T06:36:03.028Z,100354.78
2022-11-15T06:38:50.486Z,100370.97
2022-11-15T06:41:38.904Z,100357.09
2022-11-15T06:44:26.058Z,100354.59
2022-11-15T06:47:14.534Z,100354.81
2022-11-15T06:50:01.687Z,100354.84
2022-11-15T06:52:48.951Z,100352.97
2022-11-15T06:55:35.884Z,100362.56
2022-11-15T06:58:23.289Z,100358.19
2022-11-15T07:01:13.144Z,100359.78
2022-11-15T07:04:01.847Z,100353.84
2022-11-15T07:06:49.486Z,100353.59
2022-11-15T07:09:36.526Z,100364.56
2022-11-15T07:12:23.688Z,100363.66
2022-11-15T07:15:11.890Z,100355.31
2022-11-15T07:18:02.679Z,100348.41
2022-11-15T07:20:50.994Z,100358.91
2022-11-15T07:23:39.087Z,100355.28
2022-11-15T07:26:26.318Z,100358.94
2022-11-15T07:29:13.178Z,100357.78
2022-11-15T07:32:00.188Z,100371.81
2022-11-15T07:34:49.773Z,100366.50
2022-11-15T07:37:38.222Z,100361.78
2022-11-15T07:40:25.803Z,100353.88
2022-11-15T07:43:13.093Z,100349.91
2022-11-15T07:46:00.027Z,100355.56
2022-11-15T07:48:47.086Z,100347.78
2022-11-15T07:51:33.820Z,100340.72
2022-11-15T07:54:22.135Z,100337.88
2022-11-15T07:57:10.237Z,100338.09
2022-11-15T07:59:57.553Z,100327.09
2022-11-15T08:02:44.986Z,100325.31
2022-11-15T08:05:32.779Z,100328.34
2022-11-15T08:08:19.863Z,100317.91
2022-11-15T08:11:07.666Z,100314.88
2022-11-15T08:13:54.490Z,100308.53
2022-11-15T08:16:41.907Z,100307.63
2022-11-15T08:19:29.418Z,100306.16
2022-11-15T08:22:16.838Z,100303.31
2022-11-15T08:25:03.807Z,100301.38
2022-11-15T08:27:55.394Z,100306.44
2022-11-15T08:30:46.346Z,100297.38
2022-11-15T08:33:34.115Z,100298.41
2022-11-15T08:36:21.553Z,100292.19
2022-11-15T08:39:12.353Z,100296.72
2022-11-15T08:41:59.303Z,100292.56
2022-11-15T08:44:48.105Z,100288.88
2022-11-15T08:47:35.323Z,100291.22
2022-11-15T08:50:22.359Z,100306.91
2022-11-15T08:53:09.719Z,100293.09
2022-11-15T08:55:57.073Z,100287.75
2022-11-15T08:58:44.328Z,100287.81
2022-11-15T09:01:33.658Z,100282.38
2022-11-15T09:04:20.913Z,100280.41
2022-11-15T09:07:08.010Z,100277.31
2022-11-15T09:09:55.019Z,100279.13
2022-11-15T09:12:42.107Z,100271.97
2022-11-15T09:15:29.093Z,100266.16
2022-11-15T09:18:17.321Z,100263.91
2022-11-15T09:21:05.379Z,100261.69
2022-11-15T09:23:53.455Z,100259.44
2022-11-15T09:26:40.739Z,100255.78
2022-11-15T09:29:27.662Z,100263.16
2022-11-15T09:32:14.362Z,100259.59
2022-11-15T09:35:02.837Z,100250.38
2022-11-15T09:37:54.984Z,100240.38
2022-11-15T09:40:43.218Z,100241.31
2022-11-15T09:43:34.977Z,100248.00
2022-11-15T09:46:26.761Z,100243.78
2022-11-15T09:49:16.586Z,100234.78
2022-11-15T09:52:03.294Z,100230.63
2022-11-15T09:57:27.084Z,100228.97
2022-11-15T10:03:05.183Z,100215.31
2022-11-15T10:05:34.696Z,100214.28
2022-11-15T10:08:12.544Z,100211.41
2022-11-15T10:10:42.516Z,100211.09
2022-11-15T10:13:11.340Z,100209.47
2022-11-15T10:15:39.810Z,100203.22
2022-11-15T10:18:11.488Z,100194.06
2022-11-15T10:20:49.036Z,100203.50
2022-11-15T10:23:21.971Z,100196.81
2022-11-15T10:25:53.136Z,100200.56
2022-11-15T10:28:24.690Z,100202.94
2022-11-15T10:30:55.424Z,100203.72
2022-11-15T10:33:35.575Z,100200.28
2022-11-15T10:36:23.266Z,100188.63
2022-11-15T10:39:01.855Z,100187.34
2022-11-15T10:41:37.001Z,100191.81
2022-11-15T10:44:13.935Z,100180.22
2022-11-15T10:46:47.886Z,100175.53
2022-11-15T10:49:17.750Z,100180.53
2022-11-15T10:51:49.170Z,100175.66
2022-11-15T10:54:23.268Z,100174.31
2022-11-15T10:56:53.104Z,100163.91
2022-11-15T10:59:26.247Z,100172.06
2022-11-15T11:01:54.606Z,100165.13
2022-11-15T11:04:23.432Z,100155.56
2022-11-15T11:06:53.275Z,100163.41
2022-11-15T11:09:31.235Z,100159.56
2022-11-15T11:12:00.259Z,100165.19
2022-11-15T11:14:32.084Z,100160.84
2022-11-15T11:17:06.408Z,100166.00
2022-11-15T11:19:51.332Z,100160.31
2022-11-15T11:22:25.375Z,100165.16
2022-11-15T11:25:05.928Z,100152.28
2022-11-15T11:27:44.824Z,100161.66
2022-11-15T11:30:18.271Z,100148.84
2022-11-15T11:33:11.957Z,100144.03
2022-11-15T11:35:48.516Z,100140.16
2022-11-15T11:38:36.676Z,100144.09
2022-11-15T11:41:15.712Z,100124.97
2022-11-15T11:43:52.798Z,100125.34
2022-11-15T11:46:34.913Z,100124.63
2022-11-15T11:49:10.243Z,100119.19
2022-11-15T11:51:42.154Z,100115.47
2022-11-15T11:54:14.880Z,100107.63
2022-11-15T11:56:46.576Z,100108.66
2022-11-15T11:59:19.976Z,100107.94
2022-11-15T12:01:48.167Z,100104.47
2022-11-15T12:04:20.463Z,100095.53
2022-11-15T12:06:54.251Z,100100.22
2022-11-15T12:09:26.380Z,100096.56
2022-11-15T12:12:00.284Z,100090.53
2022-11-15T12:14:33.955Z,100101.97
2022-11-15T12:17:02.480Z,100096.22
2022-11-15T12:19:31.900Z,100087.75
2022-11-15T12:22:04.602Z,100091.75
2022-11-15T12:24:37.435Z,100086.72
2022-11-15T12:27:09.564Z,100086.44
2022-11-15T12:29:40.699Z,100085.03
2022-11-15T12:32:19.784Z,100076.41
2022-11-15T12:34:49.070Z,100080.78
2022-11-15T12:37:49.940Z,100074.59
2022-11-15T12:40:26.685Z,100066.56
2022-11-15T12:43:05.779Z,100064.69
2022-11-15T12:45:35.565Z,100063.03
2022-11-15T12:48:51.713Z,100063.75
2022-11-15T12:51:22.642Z,100062.13
2022-11-15T12:53:51.175Z,100058.88
2022-11-15T12:56:24.216Z,100059.25
2022-11-15T12:58:56.470Z,100065.19
2022-11-15T13:02:07.590Z,100057.00
2022-11-15T13:04:36.223Z,100060.66
2022-11-15T13:07:06.829Z,100064.84
2022-11-15T13:09:56.428Z,100065.19
2022-11-15T13:12:59.504Z,100054.75
2022-11-15T13:15:54.860Z,100045.34
2022-11-15T13:18:38.290Z,100040.34
2022-11-15T13:21:38.501Z,100040.72
2022-11-15T13:24:07.304Z,100040.97
2022-11-15T13:26:35.977Z,100037.22
2022-11-15T13:29:04.512Z,100038.47
2022-11-15T13:31:38.888Z,100030.22
2022-11-15T13:34:49.352Z,100033.72
2022-11-15T13:37:12.146Z,100032.03
2022-11-15T13:39:40.566Z,100028.88
2022-11-15T13:42:16.942Z,100027.94
2022-11-15T13:44:57.282Z,100024.56
2022-11-15T13:47:28.875Z,100018.78
2022-11-15T13:49:59.496Z,100024.41
2022-11-15T13:52:30.819Z,100022.16
2022-11-15T13:55:02.282Z,100023.81
2022-11-15T13:57:32.594Z,100021.44
2022-11-15T14:00:04.116Z,100018.59
2022-11-15T14:02:41.524Z,100018.88
2022-11-15T14:05:18.660Z,100018.94
2022-11-15T14:07:55.752Z,100026.75
2022-11-15T14:10:32.717Z,100022.56
2022-11-15T14:13:01.745Z,100017.88
2022-11-15T14:15:33.205Z,100021.03
2022-11-15T14:18:03.089Z,100011.25
2022-11-15T14:20:33.761Z,100013.28
2022-11-15T14:23:03.313Z,100010.03
2022-11-15T14:25:32.413Z,100002.28
2022-11-15T14:28:26.285Z,99998.69
2022-11-15T14:30:56.577Z,99995.88
2022-11-15T14:33:29.309Z,99995.78
2022-11-15T14:35:59.280Z,100000.03
2022-11-15T14:38:28.117Z,99995.34
2022-11-15T14:40:57.767Z,100001.56
2022-11-15T14:43:26.437Z,100006.59
2022-11-15T14:45:54.922Z,100008.94
2022-11-15T14:48:23.953Z,100012.88
2022-11-15T14:50:53.707Z,100012.84
2022-11-15T14:53:23.131Z,100005.88
2022-11-15T14:55:51.288Z,100009.56
2022-11-15T14:58:19.763Z,100003.59
2022-11-15T15:00:48.237Z,99997.75
2022-11-15T15:03:16.736Z,99998.81
2022-11-15T15:05:46.066Z,99992.84
2022-11-15T15:08:15.867Z,99995.13
2022-11-15T15:10:45.624Z,99991.72
2022-11-15T15:13:18.954Z,99997.31
2022-11-15T15:15:47.683Z,99997.25
2022-11-15T15:18:16.492Z,99989.09
2022-11-15T15:20:46.596Z,99988.50
2022-11-15T15:23:20.938Z,99990.09
2022-11-15T15:25:50.132Z,99977.47
2022-11-15T15:28:18.738Z,99986.41
2022-11-15T15:30:47.055Z,99981.72
2022-11-15T15:33:15.470Z,99978.97
2022-11-15T15:35:44.016Z,99979.84
2022-11-15T15:38:14.122Z,99984.75
2022-11-15T15:40:43.621Z,99984.13
2022-11-15T15:43:12.027Z,99981.69
2022-11-15T15:45:41.410Z,99986.59
2022-11-15T15:48:13.085Z,99981.03
2022-11-15T15:50:43.858Z,99982.88
2022-11-15T15:53:13.150Z,99981.19
2022-11-15T15:55:43.099Z,99979.09
2022-11-15T15:58:11.301Z,99970.25
2022-11-15T16:00:40.097Z,99962.19
2022-11-15T16:03:08.627Z,99965.97
2022-11-15T16:05:37.074Z,99952.78
2022-11-15T16:08:05.792Z,99950.63
2022-11-15T16:10:35.756Z,99953.63
2022-11-15T16:13:05.459Z,99951.41
2022-11-15T16:15:33.995Z,99948.91
2022-11-15T16:18:03.253Z,99952.47
2022-11-15T16:20:38.227Z,99957.00
2022-11-15T16:23:09.657Z,99957.28
2022-11-15T16:25:44.162Z,99953.91
2022-11-15T16:28:21.903Z,99951.31
2022-11-15T16:30:55.561Z,99952.97
2022-11-15T16:33:25.620Z,99952.22
2022-11-15T16:35:54.065Z,99956.91
2022-11-15T16:38:22.504Z,99963.03
2022-11-15T16:40:50.795Z,99960.44
2022-11-15T16:43:20.612Z,99952.69
2022-11-15T16:45:49.131Z,99958.91
2022-11-15T16:48:23.820Z,99952.38
2022-11-15T16:50:52.815Z,99952.53
2022-11-15T16:53:21.219Z,99954.94
2022-11-15T16:55:49.289Z,99965.34
2022-11-15T16:58:17.777Z,99968.34
2022-11-15T17:00:47.601Z,99965.41
2022-11-15T17:03:16.195Z,99957.75
2022-11-15T17:05:44.726Z,99962.00
2022-11-15T17:08:13.135Z,99954.88
2022-11-15T17:10:42.188Z,99956.75
2022-11-15T17:13:13.318Z,99953.78
2022-11-15T17:15:42.056Z,99953.59
2022-11-15T17:18:15.420Z,99950.88
2022-11-15T17:20:44.539Z,99940.75
2022-11-15T17:23:15.201Z,99949.97
2022-11-15T17:25:43.108Z,99943.16
2022-11-15T17:28:11.868Z,99950.97
2022-11-15T17:30:43.000Z,99945.44
2022-11-15T17:33:11.478Z,99945.75
2022-11-15T17:35:41.382Z,99946.13
2022-11-15T17:38:09.893Z,99956.13
2022-11-15T17:40:37.965Z,99957.78
2022-11-15T17:43:07.034Z,99954.00
2022-11-15T17:45:35.494Z,99952.44
2022-11-15T17:48:04.044Z,99947.66
2022-11-15T17:50:32.505Z,99946.00
2022-11-15T17:53:02.285Z,99947.28
2022-11-15T17:55:30.274Z,99935.41
2022-11-15T17:57:58.720Z,99938.91
2022-11-15T18:00:27.063Z,99934.22
2022-11-15T18:02:55.511Z,99921.69
2022-11-15T18:05:24.046Z,99933.75
2022-11-15T18:07:52.153Z,99928.75
2022-11-15T18:10:21.940Z,99932.84
2022-11-15T18:12:50.421Z,99930.28
2022-11-15T18:15:19.158Z,99932.47
2022-11-15T18:17:47.611Z,99928.16
2022-11-15T18:20:16.927Z,99927.88
2022-11-15T18:22:45.064Z,99925.69
2022-11-15T18:25:15.930Z,99926.81
2022-11-15T18:27:45.720Z,99922.19
2022-11-15T18:30:14.503Z,99920.53
2022-11-15T18:32:43.016Z,99928.25
2022-11-15T18:35:11.581Z,99931.72
2022-11-15T18:37:39.699Z,99927.94
2022-11-15T18:40:09.568Z,99928.84
2022-11-15T18:42:37.989Z,99929.84
2022-11-15T18:45:09.657Z,99925.31
2022-11-15T18:47:38.741Z,99927.09
2022-11-15T18:50:08.006Z,99926.59
2022-11-15T18:52:36.135Z,99927.31
2022-11-15T18:55:05.081Z,99929.34
2022-11-15T18:57:33.696Z,99938.44
2022-11-15T19:00:02.136Z,99935.91
2022-11-15T19:02:32.414Z,99940.03
2022-11-15T19:05:00.832Z,99933.22
2022-11-15T19:07:29.043Z,99926.41
2022-11-15T19:09:57.745Z,99926.88
2022-11-15T19:12:26.266Z,99928.94
2022-11-15T19:14:54.689Z,99919.38
2022-11-15T19:17:23.160Z,99921.19
2022-11-15T19:19:52.554Z,99922.19
2022-11-15T19:22:20.993Z,99919.09
2022-11-15T19:24:49.451Z,99919.38
2022-11-15T19:27:17.861Z,99925.41
2022-11-15T19:29:46.221Z,99922.56
2022-11-15T19:32:14.609Z,99924.41
2022-11-15T19:34:42.747Z,99924.16
2022-11-15T19:37:12.472Z,99927.63
2022-11-15T19:39:41.486Z,99929.47
2022-11-15T19:42:09.960Z,99926.09
2022-11-15T19:44:38.521Z,99920.56
2022-11-15T19:47:09.365Z,99918.53
2022-11-15T19:49:37.470Z,99916.78
2022-11-15T19:52:06.327Z,99912.09
2022-11-15T19:54:36.179Z,99902.28
2022-11-15T19:57:04.730Z,99905.34
2022-11-15T19:59:33.129Z,99905.09
2022-11-15T20:02:01.485Z,99907.34
2022-11-15T20:04:29.670Z,99912.19
2022-11-15T20:06:58.059Z,99914.28
2022-11-15T20:09:26.529Z,99909.53
2022-11-15T20:11:58.703Z,99905.47
2022-11-15T20:14:28.106Z,99899.94
2022-11-15T20:16:56.154Z,99893.16
2022-11-15T20:19:24.686Z,99898.72
2022-11-15T20:21:53.108Z,99901.13
2022-11-15T20:24:21.624Z,99903.66
2022-11-15T20:26:50.106Z,99900.69
2022-11-15T20:29:20.116Z,99900.22
2022-11-15T20:31:48.293Z,99895.66
2022-11-15T20:34:16.707Z,99901.94
2022-11-15T20:36:45.180Z,99910.13
2022-11-15T20:39:13.604Z,99901.63
2022-11-15T20:41:42.025Z,99909.56
2022-11-15T20:44:10.366Z,99904.81
2022-11-15T20:46:39.833Z,99899.88
2022-11-15T20:49:08.240Z,99897.75
2022-11-15T20:51:36.969Z,99898.25
2022-11-15T20:54:06.257Z,99906.28
2022-11-15T20:56:34.638Z,99902.16
2022-11-15T20:59:03.191Z,99897.06
2022-11-15T21:01:31.929Z,99895.34
2022-11-15T21:04:01.852Z,99896.84
2022-11-15T21:06:30.660Z,99886.13
2022-11-15T21:09:16.623Z,99883.03
2022-11-15T21:12:02.716Z,99882.31
2022-11-15T21:14:31.227Z,99884.31
2022-11-15T21:16:59.748Z,99885.97
2022-11-15T21:19:36.676Z,99893.81
2022-11-15T21:22:06.863Z,99895.97
2022-11-15T21:24:35.285Z,99894.25
2022-11-15T21:27:03.687Z,99891.41
2022-11-15T21:29:37.527Z,99896.38
2022-11-15T21:32:07.291Z,99881.66
2022-11-15T21:34:37.341Z,99878.97
2022-11-15T21:37:06.068Z,99875.13
2022-11-15T21:39:34.619Z,99877.59
2022-11-15T21:42:02.970Z,99873.88
2022-11-15T21:44:31.732Z,99879.78
2022-11-15T21:47:00.237Z,99866.81
2022-11-15T21:49:28.230Z,99860.94
2022-11-15T21:51:57.980Z,99858.84
2022-11-15T21:54:26.408Z,99856.44
2022-11-15T21:56:54.843Z,99860.09
2022-11-15T21:59:23.316Z,99853.66
2022-11-15T22:02:09.097Z,99846.84
2022-11-15T22:04:37.674Z,99850.09
2022-11-15T22:07:07.911Z,99846.16
2022-11-15T22:09:36.749Z,99845.75
2022-11-15T22:12:05.327Z,99849.31
2022-11-15T22:14:33.767Z,99854.41
2022-11-15T22:17:02.434Z,99847.09
2022-11-15T22:19:30.791Z,99845.59
2022-11-15T22:21:59.323Z,99831.53
2022-11-15T22:24:29.411Z,99833.19
2022-11-15T22:26:58.126Z,99826.53
2022-11-15T22:29:26.860Z,99820.38
2022-11-15T22:31:54.943Z,99817.13
2022-11-15T22:34:23.382Z,99807.00
2022-11-15T22:37:19.121Z,99805.94
2022-11-15T22:39:42.590Z,99806.56
2022-11-15T22:42:11.148Z,99802.56
2022-11-15T22:44:39.682Z,99805.09
2022-11-15T22:47:08.189Z,99799.63
2022-11-15T22:49:36.265Z,99801.00
2022-11-15T22:52:04.814Z,99795.94
2022-11-15T22:54:33.239Z,99791.03
2022-11-15T22:57:04.158Z,99787.25
2022-11-15T22:59:33.014Z,99784.22
2022-11-15T23:02:01.577Z,99780.31
2022-11-15T23:04:30.138Z,99782.38
2022-11-15T23:06:58.700Z,99774.66
2022-11-15T23:09:27.289Z,99776.03
2022-11-15T23:12:13.415Z,99779.66
2022-11-15T23:14:43.379Z,99777.03
2022-11-15T23:17:12.005Z,99782.09
2022-11-15T23:19:40.338Z,99784.34
2022-11-15T23:22:26.225Z,99780.66
2022-11-15T23:24:55.937Z,99779.69
2022-11-15T23:27:24.430Z,99785.41
2022-11-15T23:30:11.475Z,99781.50
2022-11-15T23:32:57.204Z,99777.03
2022-11-15T23:35:26.054Z,99781.00
2022-11-15T23:37:54.210Z,99784.19
2022-11-15T23:40:22.590Z,99776.22
2022-11-15T23:42:51.089Z,99775.06
2022-11-15T23:45:20.895Z,99767.53
2022-11-15T23:47:49.327Z,99773.63
2022-11-15T23:50:18.341Z,99769.03
2022-11-15T23:52:46.730Z,99766.81
2022-11-15T23:55:15.388Z,99765.38
2022-11-15T23:57:43.770Z,99764.22
